Time;durP1;ratioP1;P1;durP2;ratioP2;P2;SDS_P1;SDS_P2;PMS_P1;PMS_P2;Temp;Humidity;BMP_temperature;BMP_pressure;BME280_temperature;BME280_humidity;BME280_pressure;Samples;Min_cycle;Max_cycle;Signal;HPM_P1;HPM_P2
2022/01/28 00:01:22;;;;;;;14.50;1.90;;;;;;;4.17;77.39;102904.47;5048842;28;20060;-78
2022/01/28 00:03:47;;;;;;;8.53;1.10;;;;;;;4.13;77.36;102905.16;5048389;28;20029;-78
2022/01/28 00:06:13;;;;;;;12.00;1.30;;;;;;;4.14;77.23;102912.06;5050352;28;20021;-78
2022/01/28 00:08:38;;;;;;;13.63;1.73;;;;;;;4.10;77.22;102909.38;5049910;28;20051;-78
2022/01/28 00:11:03;;;;;;;11.20;1.55;;;;;;;4.09;77.18;102917.06;5048417;28;20029;-78
2022/01/28 00:13:38;;;;;;;6.83;1.13;;;;;;;4.07;77.37;102919.63;5050682;28;20490;-78
2022/01/28 00:16:35;;;;;;;8.17;1.90;;;;;;;4.07;77.19;102924.75;5050479;28;20489;-78
2022/01/28 00:40:25;;;;;;;8.63;1.02;;;;;;;3.91;76.47;102918.19;5047970;28;20037;-78
2022/01/28 00:42:50;;;;;;;10.07;1.47;;;;;;;3.89;76.41;102929.25;5049469;28;20025;-78
2022/01/28 00:45:16;;;;;;;12.87;1.30;;;;;;;3.86;76.69;102924.00;5048998;28;20024;-78
2022/01/28 00:47:43;;;;;;;10.57;1.40;;;;;;;3.86;77.14;102929.16;5050467;28;20025;-78
2022/01/28 00:50:09;;;;;;;12.47;1.87;;;;;;;3.83;76.95;102929.03;5048273;28;20016;-78
2022/01/28 00:52:35;;;;;;;7.20;1.50;;;;;;;3.83;77.12;102932.50;5051806;28;20098;-78
2022/01/28 00:55:00;;;;;;;7.47;1.30;;;;;;;3.78;77.28;102936.59;5049181;28;20078;-78
2022/01/28 00:57:26;;;;;;;8.43;1.30;;;;;;;3.82;77.53;102942.72;5047883;28;20553;-78
2022/01/28 00:59:51;;;;;;;9.97;1.30;;;;;;;3.78;77.55;102934.88;5048448;28;20043;-78
2022/01/28 01:02:16;;;;;;;10.20;1.47;;;;;;;3.76;77.86;102927.94;5049011;28;20063;-78
2022/01/28 01:04:41;;;;;;;9.60;1.30;;;;;;;3.76;77.82;102928.78;5048606;28;20755;-78
2022/01/28 01:07:08;;;;;;;10.07;1.30;;;;;;;3.75;78.05;102929.66;5050146;28;20025;-78
2022/01/28 01:09:34;;;;;;;5.70;1.17;;;;;;;3.79;77.54;102933.19;5049260;28;20045;-78
2022/01/28 01:11:59;;;;;;;8.80;1.13;;;;;;;3.80;77.85;102935.81;5050673;28;20074;-78
2022/01/28 01:14:24;;;;;;;10.37;1.40;;;;;;;3.78;77.77;102932.31;5048708;28;20380;-78
2022/01/28 01:17:10;;;;;;;6.97;1.13;;;;;;;3.80;77.82;102935.81;5049729;28;20017;-78
2022/01/28 01:19:40;;;;;;;8.07;1.07;;;;;;;3.80;78.03;102943.53;5049553;28;20070;-78
2022/01/28 01:22:08;;;;;;;8.33;1.07;;;;;;;3.81;77.83;102939.28;5052621;28;20041;-78
2022/01/28 01:24:37;;;;;;;6.70;1.03;;;;;;;3.79;77.73;102944.34;5055381;28;20025;-78
2022/01/28 01:27:04;;;;;;;9.27;1.10;;;;;;;3.82;77.96;102953.03;5053589;28;20504;-78
2022/01/28 01:29:29;;;;;;;11.27;1.30;;;;;;;3.83;77.96;102959.91;5052100;28;20522;-78
2022/01/28 01:32:02;;;;;;;12.80;1.60;;;;;;;3.89;77.54;102962.75;5052135;28;20025;-78
2022/01/28 01:34:28;;;;;;;7.07;1.07;;;;;;;3.91;77.05;102963.66;5053212;28;20021;-78
2022/01/28 01:36:54;;;;;;;9.53;1.13;;;;;;;3.90;77.19;102967.06;5052358;28;20098;-78
2022/01/28 01:39:25;;;;;;;9.20;1.30;;;;;;;3.91;77.12;102963.66;5052235;28;20167;-78
2022/01/28 01:42:11;;;;;;;;;;;;;;;3.98;77.62;102975.94;5051530;28;20080;-78
2022/01/28 01:52:00;;;;;;;13.20;1.10;;;;;;;3.91;77.18;102992.00;5053190;28;20131;-78
2022/01/28 01:53:13;;;;;;;10.60;1.53;;;;;;;3.89;77.17;103001.38;5002623;28;20029;-78
2022/01/28 01:55:38;;;;;;;14.23;1.60;;;;;;;3.89;77.61;103003.94;4994990;28;20045;-78
2022/01/28 01:58:04;;;;;;;7.93;1.07;;;;;;;3.89;77.41;103009.09;5021654;28;20509;-78
2022/01/28 02:00:29;;;;;;;12.43;1.87;;;;;;;3.88;77.36;103012.47;5051024;28;20025;-78
2022/01/28 02:02:54;;;;;;;10.70;1.17;;;;;;;3.90;77.74;103014.28;5051649;28;20049;-79
2022/01/28 02:05:19;;;;;;;8.80;1.30;;;;;;;3.90;77.11;103014.28;5052364;28;20041;-78
2022/01/28 02:07:45;;;;;;;9.30;1.47;;;;;;;3.90;77.45;103013.41;5052567;28;20509;-78
2022/01/28 02:10:11;;;;;;;9.67;1.10;;;;;;;3.91;77.34;103020.31;5052192;28;20086;-78
2022/01/28 02:12:47;;;;;;;8.80;1.40;;;;;;;3.90;77.29;103028.88;5052692;28;20025;-78
2022/01/28 02:15:13;;;;;;;10.67;1.30;;;;;;;3.89;77.55;103024.53;5052622;28;20032;-78
2022/01/28 02:17:38;;;;;;;7.90;0.93;;;;;;;3.89;77.22;103027.09;5050269;28;20050;-78
2022/01/28 02:20:07;;;;;;;9.63;1.30;;;;;;;3.90;77.62;103032.31;5052415;28;20025;-78
2022/01/28 02:22:34;;;;;;;8.23;1.17;;;;;;;3.89;77.81;103033.13;5050482;28;20036;-78
2022/01/28 02:25:00;;;;;;;9.03;1.10;;;;;;;3.92;77.30;103042.69;5050348;28;20061;-78
2022/01/28 02:27:25;;;;;;;9.53;1.67;;;;;;;3.89;77.53;103040.00;5052041;28;20398;-78
2022/01/28 02:29:51;;;;;;;11.83;1.40;;;;;;;3.87;78.02;103032.19;5052518;28;20080;-78
2022/01/28 02:32:16;;;;;;;8.87;1.53;;;;;;;3.86;78.16;103040.72;5050103;28;20480;-78
2022/01/28 02:34:41;;;;;;;12.30;1.50;;;;;;;3.89;77.91;103042.56;5051783;28;20063;-78
2022/01/28 02:37:07;;;;;;;6.73;1.00;;;;;;;3.90;77.71;103050.34;5051010;28;20472;-78
2022/01/28 02:39:32;;;;;;;13.70;1.50;;;;;;;3.89;77.73;103040.00;5061418;28;20027;-78
2022/01/28 02:42:06;;;;;;;10.43;1.27;;;;;;;3.87;78.38;103039.91;5051245;28;20418;-78
2022/01/28 02:44:45;;;;;;;5.77;1.00;;;;;;;3.88;78.22;103038.22;5052100;28;20049;-78
2022/01/28 02:47:15;;;;;;;7.63;1.60;;;;;;;3.86;78.48;103048.44;5048995;28;20029;-78
2022/01/28 02:49:42;;;;;;;6.27;1.10;;;;;;;3.85;78.39;103045.84;5050782;28;20021;-78
2022/01/28 02:52:17;;;;;;;9.47;1.20;;;;;;;3.83;78.19;103043.22;5050446;28;20025;-78
2022/01/28 02:54:46;;;;;;;12.87;1.67;;;;;;;3.86;78.37;103055.31;5052080;28;20415;-78
2022/01/28 02:57:11;;;;;;;8.53;1.23;;;;;;;3.87;78.69;103046.78;5050434;28;20036;-78
2022/01/28 02:59:36;;;;;;;5.63;0.90;;;;;;;3.87;78.79;103052.78;5051437;28;20039;-78
2022/01/28 03:02:02;;;;;;;10.60;1.73;;;;;;;3.89;78.50;103058.88;5049028;28;20032;-78
2022/01/28 03:07:11;;;;;;;14.77;2.27;;;;;;;3.91;78.82;103070.13;5051372;28;20498;-78
2022/01/28 03:09:50;;;;;;;14.43;1.40;;;;;;;3.91;78.30;103064.09;5050508;28;20111;-78
2022/01/28 03:12:18;;;;;;;7.43;1.13;;;;;;;3.93;78.40;103068.47;5048002;28;20027;-78
2022/01/28 03:15:00;;;;;;;12.93;1.93;;;;;;;3.96;78.83;103075.44;5048792;28;20029;-78
2022/01/28 03:22:46;;;;;;;8.63;0.97;;;;;;;3.88;78.68;103071.72;5050626;28;20111;-78
2022/01/28 03:25:13;;;;;;;9.80;1.20;;;;;;;3.88;78.95;103069.13;5050952;28;20544;-78
2022/01/28 03:27:51;;;;;;;9.83;1.33;;;;;;;3.86;78.75;103068.19;5050807;28;20116;-78
2022/01/28 03:30:16;;;;;;;12.67;1.70;;;;;;;3.89;78.36;103073.47;5050086;28;20086;-78
2022/01/28 03:32:42;;;;;;;10.07;1.47;;;;;;;3.88;78.66;103076.84;5050436;28;20435;-78
2022/01/28 03:35:09;;;;;;;11.13;1.40;;;;;;;3.87;78.60;103082.81;5050276;28;20033;-78
2022/01/28 03:37:35;;;;;;;10.77;1.30;;;;;;;3.84;78.59;103085.28;5051593;28;20040;-78
2022/01/28 03:40:01;;;;;;;9.00;1.23;;;;;;;3.83;78.83;103089.56;5049597;28;20491;-78
2022/01/28 03:42:27;;;;;;;11.40;1.10;;;;;;;3.79;79.23;103088.53;5050233;28;20037;-78
2022/01/28 03:44:52;;;;;;;9.87;1.27;;;;;;;3.79;79.36;103085.97;5048770;28;20044;-78
2022/01/28 03:47:17;;;;;;;8.70;1.10;;;;;;;3.76;79.06;103083.25;5050437;28;20456;-78
2022/01/28 03:49:42;;;;;;;6.93;1.50;;;;;;;3.75;79.16;103080.66;5049525;28;20025;-78
2022/01/28 03:52:08;;;;;;;8.80;1.23;;;;;;;3.72;79.55;103089.13;5050675;28;20075;-78
2022/01/28 03:54:33;;;;;;;8.77;1.63;;;;;;;3.68;79.78;103084.69;5049096;28;20107;-78
2022/01/28 03:56:58;;;;;;;11.43;1.60;;;;;;;3.67;79.50;103088.06;5050921;28;20029;-78
2022/01/28 03:59:23;;;;;;;8.73;1.70;;;;;;;3.63;79.85;103075.88;5050437;28;20320;-79
2022/01/28 04:01:50;;;;;;;11.23;1.50;;;;;;;3.58;79.88;103077.44;5050570;28;20021;-79
2022/01/28 04:12:20;;;;;;;10.17;1.23;;;;;;;3.44;80.42;103088.03;5050589;28;20052;-78
2022/01/28 04:15:03;;;;;;;6.77;1.00;;;;;;;3.40;80.36;103088.75;5049432;28;20017;-78
2022/01/28 04:17:28;;;;;;;11.27;1.60;;;;;;;3.37;80.18;103091.19;5048928;28;20024;-79
2022/01/28 04:19:54;;;;;;;5.70;1.10;;;;;;;3.34;80.54;103093.63;5049143;28;20083;-78
2022/01/28 04:22:20;;;;;;;10.13;1.30;;;;;;;3.30;80.56;103097.78;5047851;28;20484;-78
2022/01/28 04:24:46;;;;;;;10.33;1.10;;;;;;;3.28;80.94;103098.50;5050353;28;20033;-78
2022/01/28 04:27:11;;;;;;;8.67;1.40;;;;;;;3.24;81.03;103097.50;5048969;28;20043;-78
2022/01/28 04:29:37;;;;;;;9.60;1.00;;;;;;;3.23;80.88;103084.59;5048363;28;20033;-78
2022/01/28 04:32:03;;;;;;;9.30;1.20;;;;;;;3.22;81.29;103085.41;5050282;28;20090;-78
2022/01/28 04:34:28;;;;;;;7.83;1.10;;;;;;;3.25;81.39;103095.81;5048867;28;20025;-78
2022/01/28 04:58:07;;;;;;;14.53;1.20;;;;;;;3.46;81.14;103134.44;5053258;28;20040;-78
2022/01/28 05:00:47;;;;;;;6.03;0.80;;;;;;;3.44;81.32;103120.63;5051769;28;20027;-78
2022/01/28 05:26:36;;;;;;;9.33;1.10;;;;;;;3.32;81.92;103167.28;5053272;28;20033;-78
2022/01/28 05:29:02;;;;;;;7.80;0.90;;;;;;;3.31;82.26;103170.69;5052632;28;20024;-78
2022/01/28 05:31:27;;;;;;;7.07;1.00;;;;;;;3.33;82.02;103171.63;5053298;28;20033;-78
2022/01/28 05:33:53;;;;;;;16.97;1.20;;;;;;;3.30;82.39;103168.91;5047674;28;20043;-78
2022/01/28 05:36:19;;;;;;;7.30;1.13;;;;;;;3.28;82.12;103176.59;5053287;28;20033;-78
2022/01/28 05:38:44;;;;;;;10.13;1.27;;;;;;;3.25;82.05;103175.56;5052826;28;20029;-78
2022/01/28 05:41:10;;;;;;;8.70;1.53;;;;;;;3.21;82.44;103183.97;5053702;28;20055;-78
2022/01/28 05:43:35;;;;;;;7.20;1.40;;;;;;;3.19;82.70;103187.38;5052198;28;20063;-78
2022/01/28 05:46:00;;;;;;;7.43;1.80;;;;;;;3.16;82.47;103186.38;5052912;28;20024;-78
2022/01/28 05:48:25;;;;;;;10.33;1.43;;;;;;;3.14;82.97;103194.00;5051238;28;20503;-78
2022/01/28 05:50:51;;;;;;;10.80;1.47;;;;;;;3.13;83.10;103196.50;5051686;28;20056;-78
2022/01/28 05:53:16;;;;;;;9.67;1.47;;;;;;;3.09;83.09;103202.31;5051136;28;20119;-78
2022/01/28 05:55:42;;;;;;;10.97;1.40;;;;;;;3.05;83.52;103209.03;5052814;28;20029;-78
2022/01/28 05:58:07;;;;;;;11.13;1.50;;;;;;;3.03;83.54;103210.66;5053648;28;20472;-78
2022/01/28 06:00:32;;;;;;;6.53;1.30;;;;;;;3.02;83.91;103219.19;5056924;28;20033;-78
2022/01/28 06:02:58;;;;;;;10.43;1.27;;;;;;;3.00;83.76;103216.53;5052248;28;20029;-78
2022/01/28 06:05:29;;;;;;;8.37;1.40;;;;;;;3.00;84.38;103226.81;5049876;28;21660;-78
2022/01/28 06:07:55;;;;;;;11.45;1.73;;;;;;;2.99;83.85;103231.91;5056364;28;20036;-78
2022/01/28 06:10:20;;;;;;;5.93;1.20;;;;;;;2.99;83.75;103235.34;5053089;28;20024;-78
2022/01/28 06:12:47;;;;;;;9.37;1.30;;;;;;;2.99;83.72;103234.47;5053298;28;20036;-79
2022/01/28 06:15:13;;;;;;;6.87;1.00;;;;;;;2.99;83.68;103239.63;5052605;28;20017;-79
2022/01/28 06:17:38;;;;;;;7.60;1.23;;;;;;;2.98;83.88;103240.41;5048947;28;20047;-79
2022/01/28 06:20:06;;;;;;;11.87;1.37;;;;;;;2.96;84.05;103244.63;5051360;28;21477;-79
2022/01/28 06:22:32;;;;;;;8.07;1.27;;;;;;;2.97;83.71;103242.13;5052069;28;20107;-79
2022/01/28 06:25:00;;;;;;;12.30;2.33;;;;;;;2.97;83.50;103254.09;5051533;28;20025;-79
2022/01/28 06:27:25;;;;;;;6.63;1.37;;;;;;;2.98;83.59;103253.28;5051165;28;20518;-79
2022/01/28 06:29:50;;;;;;;9.70;1.17;;;;;;;2.99;83.69;103260.19;5052888;28;20029;-79
2022/01/28 06:32:16;;;;;;;8.10;1.20;;;;;;;2.97;83.35;103270.41;5051185;28;20075;-79
2022/01/28 06:34:43;;;;;;;9.17;1.07;;;;;;;2.95;83.24;103273.72;5051793;28;20075;-79
2022/01/28 06:37:08;;;;;;;10.70;1.43;;;;;;;2.92;83.23;103261.59;5048979;28;20086;-79
2022/01/28 06:39:33;;;;;;;10.03;1.33;;;;;;;2.90;83.36;103264.94;5051898;28;20033;-79
2022/01/28 06:42:00;;;;;;;8.10;1.30;;;;;;;2.91;83.45;103274.38;5050284;28;20056;-79
2022/01/28 06:44:25;;;;;;;10.23;1.60;;;;;;;2.88;83.19;103278.59;5050870;28;20032;-79
2022/01/28 06:46:51;;;;;;;7.57;1.40;;;;;;;2.88;82.94;103286.31;5050335;28;20029;-79
2022/01/28 06:49:16;;;;;;;12.50;1.90;;;;;;;2.85;83.36;103291.31;5052464;28;20500;-79
2022/01/28 06:51:41;;;;;;;10.10;1.80;;;;;;;2.84;83.16;103286.97;5049054;28;20025;-79
2022/01/28 06:54:07;;;;;;;6.87;1.47;;;;;;;2.83;83.15;103282.63;5049810;28;20059;-79
2022/01/28 06:56:32;;;;;;;9.33;1.77;;;;;;;2.82;83.09;103288.59;5050495;28;20029;-78
2022/01/28 06:58:57;;;;;;;11.70;2.33;;;;;;;2.79;82.61;103303.84;5051971;28;20037;-79
2022/01/28 07:01:23;;;;;;;10.03;3.40;;;;;;;2.76;83.12;103303.72;5050005;28;20452;-79
2022/01/28 07:03:48;;;;;;;17.53;3.50;;;;;;;2.76;83.12;103310.56;5050847;28;20033;-79
2022/01/28 07:06:14;;;;;;;15.77;3.63;;;;;;;2.74;83.06;103320.75;5050575;28;20025;-79
2022/01/28 07:08:39;;;;;;;8.37;1.93;;;;;;;2.73;82.90;103324.16;5051971;28;20029;-79
2022/01/28 07:11:04;;;;;;;10.77;2.00;;;;;;;2.72;82.79;103322.41;5050295;28;20419;-79
2022/01/28 07:13:29;;;;;;;10.57;2.10;;;;;;;2.71;83.01;103323.19;5049746;28;20025;-78
2022/01/28 07:15:55;;;;;;;12.93;1.87;;;;;;;2.70;82.84;103330.00;5051022;28;20029;-79
2022/01/28 07:18:20;;;;;;;9.40;1.43;;;;;;;2.69;82.88;103332.53;5049657;28;20143;-79
2022/01/28 07:20:46;;;;;;;9.43;1.80;;;;;;;2.69;83.08;103338.53;5048781;28;20456;-79
2022/01/28 07:23:11;;;;;;;12.03;1.53;;;;;;;2.68;83.02;103338.47;5049678;28;20102;-79
2022/01/28 07:25:37;;;;;;;9.27;1.50;;;;;;;2.67;83.34;103339.28;5051290;28;20036;-79
2022/01/28 07:28:02;;;;;;;10.73;1.40;;;;;;;2.65;83.02;103331.47;5051934;28;20488;-79
2022/01/28 07:30:27;;;;;;;8.33;1.50;;;;;;;2.65;83.04;103340.88;5049747;28;20052;-79
2022/01/28 07:32:53;;;;;;;7.17;1.60;;;;;;;2.64;82.45;103354.56;5051952;28;20533;-79
2022/01/28 07:35:18;;;;;;;5.93;2.10;;;;;;;2.61;82.64;103349.25;5046360;28;20031;-79
2022/01/28 07:37:44;;;;;;;18.80;2.93;;;;;;;2.60;83.08;103352.63;5050693;28;20029;-79
2022/01/28 07:40:10;;;;;;;9.53;2.40;;;;;;;2.57;83.11;103349.09;5050743;28;20032;-79
2022/01/28 07:42:40;;;;;;;7.57;2.03;;;;;;;2.55;82.85;103363.59;5062882;28;20021;-79
2022/01/28 07:45:07;;;;;;;8.57;1.93;;;;;;;2.51;81.96;103374.53;5049334;28;20031;-79
2022/01/28 07:47:32;;;;;;;9.47;1.70;;;;;;;2.48;81.92;103382.06;5053418;28;20025;-78
2022/01/28 07:49:58;;;;;;;7.60;2.00;;;;;;;2.43;82.64;103380.97;5050151;28;20717;-79
2022/01/28 07:52:23;;;;;;;9.33;2.20;;;;;;;2.42;82.92;103379.19;5051924;28;20024;-79
2022/01/28 07:54:50;;;;;;;11.60;1.73;;;;;;;2.40;82.63;103380.81;5051647;28;20016;-78
2022/01/28 07:57:15;;;;;;;7.43;1.60;;;;;;;2.37;82.19;103383.25;5050866;28;20029;-78
2022/01/28 07:59:41;;;;;;;10.83;2.23;;;;;;;2.36;82.49;103378.91;5051325;28;20330;-79
2022/01/28 08:02:07;;;;;;;16.67;2.57;;;;;;;2.37;83.01;103386.69;5049967;28;20102;-79
2022/01/28 08:04:32;;;;;;;11.70;2.80;;;;;;;2.39;82.87;103385.06;5050335;28;20460;-79
2022/01/28 08:06:58;;;;;;;10.60;2.97;;;;;;;2.41;83.22;103380.91;5049168;28;20032;-79
2022/01/28 08:09:23;;;;;;;12.97;2.83;;;;;;;2.43;83.06;103387.00;5050531;28;20037;-79
2022/01/28 08:11:48;;;;;;;9.57;2.73;;;;;;;2.45;83.15;103389.63;5050881;28;20033;-79
2022/01/28 08:14:14;;;;;;;9.80;2.00;;;;;;;2.45;83.08;103389.63;5058890;28;20028;-79
2022/01/28 08:16:39;;;;;;;11.73;2.30;;;;;;;2.46;82.98;103388.81;5059815;28;20025;-78
2022/01/28 08:19:05;;;;;;;10.30;2.30;;;;;;;2.47;82.96;103403.44;5050804;28;20017;-78
2022/01/28 08:21:30;;;;;;;10.07;2.37;;;;;;;2.49;83.14;103412.09;5067302;28;20037;-80
2022/01/28 08:23:55;;;;;;;10.70;3.57;;;;;;;2.52;83.22;103413.94;5050263;28;20763;-79
2022/01/28 08:26:21;;;;;;;12.73;2.80;;;;;;;2.55;83.16;103416.66;5048161;28;20367;-78
2022/01/28 08:28:47;;;;;;;9.43;2.87;;;;;;;2.56;83.58;103416.72;5054473;28;20511;-78
2022/01/28 08:31:13;;;;;;;21.17;3.07;;;;;;;2.62;83.60;103422.97;5071553;28;20025;-78
2022/01/28 08:33:38;;;;;;;7.60;2.57;;;;;;;2.65;84.01;103411.16;5054147;28;20064;-79
2022/01/28 08:36:04;;;;;;;14.13;2.97;;;;;;;2.67;83.65;103417.25;5049449;28;20577;-79
2022/01/28 08:38:35;;;;;;;14.47;3.13;;;;;;;2.69;83.66;103427.63;5056399;28;20028;-79
2022/01/28 08:41:02;;;;;;;12.02;2.80;;;;;;;2.71;83.66;103429.47;5058003;28;20029;-80
2022/01/28 08:43:27;;;;;;;11.77;2.80;;;;;;;2.75;83.64;103427.91;5057443;28;20488;-79
2022/01/28 08:45:53;;;;;;;14.00;3.30;;;;;;;2.78;83.64;103422.06;5058634;28;20028;-79
2022/01/28 08:48:18;;;;;;;14.57;3.10;;;;;;;2.78;83.27;103420.34;5059854;28;20097;-79
2022/01/28 08:50:43;;;;;;;11.07;3.10;;;;;;;2.78;83.40;103420.34;5058455;28;20438;-78
2022/01/28 08:53:10;;;;;;;9.03;3.07;;;;;;;2.80;83.57;103423.00;5058557;28;20028;-78
2022/01/28 08:55:37;;;;;;;11.50;3.30;;;;;;;2.81;83.55;103417.94;5057661;28;20052;-79
2022/01/28 08:58:03;;;;;;;12.73;3.07;;;;;;;2.84;83.58;103418.09;5056414;28;20333;-78
2022/01/28 09:00:28;;;;;;;8.37;3.00;;;;;;;2.86;83.90;103425.88;5058696;28;20033;-79
2022/01/28 09:02:53;;;;;;;10.23;3.13;;;;;;;2.91;83.70;103433.78;5056190;28;20035;-78
2022/01/28 09:05:19;;;;;;;15.03;3.73;;;;;;;2.93;83.86;103434.75;5061427;28;20040;-78
2022/01/28 09:07:44;;;;;;;11.03;3.10;;;;;;;2.95;83.85;103428.00;5060736;28;20437;-77
2022/01/28 09:10:17;;;;;;;16.87;4.03;;;;;;;2.96;83.59;103429.75;5058732;28;20562;-78
2022/01/28 09:12:49;;;;;;;10.00;3.10;;;;;;;2.99;83.30;103429.91;5057964;28;20047;-78
2022/01/28 09:15:15;;;;;;;16.10;3.10;;;;;;;3.04;83.50;103428.44;5058781;28;20056;-78
2022/01/28 09:17:41;;;;;;;11.33;2.60;;;;;;;3.06;83.47;103420.78;5058795;28;20028;-79
2022/01/28 09:20:06;;;;;;;12.67;4.13;;;;;;;3.09;83.69;103420.94;5061228;28;20041;-78
2022/01/28 09:22:32;;;;;;;9.20;3.33;;;;;;;3.12;84.07;103426.25;5052757;28;20049;-79
2022/01/28 09:24:57;;;;;;;15.53;3.20;;;;;;;3.16;83.71;103428.16;5057819;28;20754;-78
2022/01/28 09:27:22;;;;;;;10.90;3.40;;;;;;;3.18;83.89;103432.56;5057217;28;20036;-79
2022/01/28 09:29:48;;;;;;;12.87;3.70;;;;;;;3.23;84.10;103435.31;5056003;28;20048;-79
2022/01/28 09:32:13;;;;;;;14.67;3.50;;;;;;;3.28;83.97;103438.09;5059117;28;20116;-79
2022/01/28 09:34:38;;;;;;;13.43;3.10;;;;;;;3.31;83.33;103433.09;5058576;28;20028;-79
2022/01/28 09:37:04;;;;;;;12.07;3.20;;;;;;;3.33;83.31;103436.63;5056427;28;20048;-79
2022/01/28 09:39:32;;;;;;;12.00;3.17;;;;;;;3.37;83.74;103440.22;5060346;28;20060;-79
2022/01/28 09:42:02;;;;;;;10.10;3.23;;;;;;;3.40;83.48;103443.84;5057907;28;20032;-80
2022/01/28 09:44:29;;;;;;;11.47;3.30;;;;;;;3.44;83.47;103439.72;5054138;28;20556;-78
2022/01/28 09:46:56;;;;;;;8.47;3.53;;;;;;;3.48;83.45;103447.63;5057794;28;20070;-80
2022/01/28 09:49:22;;;;;;;15.03;3.27;;;;;;;3.54;83.39;103453.88;5054187;28;20032;-79
2022/01/28 09:51:47;;;;;;;12.37;3.20;;;;;;;3.58;83.34;103454.09;5056039;28;20388;-82
2022/01/28 09:54:12;;;;;;;18.50;3.60;;;;;;;3.61;83.52;103456.81;5060544;28;20035;-79
2022/01/28 09:56:37;;;;;;;20.07;3.47;;;;;;;3.68;83.54;103464.78;5057673;28;20043;-79
2022/01/28 09:59:03;;;;;;;12.37;3.17;;;;;;;3.71;83.29;103468.41;5058353;28;20033;-78
2022/01/28 10:01:28;;;;;;;11.40;3.40;;;;;;;3.75;83.59;103467.75;5055419;28;20032;-79
2022/01/28 10:04:05;;;;;;;12.67;4.00;;;;;;;3.81;83.34;103472.28;5057679;28;20132;-79
2022/01/28 10:06:34;;;;;;;19.10;4.27;;;;;;;3.85;83.52;103473.28;5054585;28;20024;-79
2022/01/28 10:09:06;;;;;;;14.47;4.20;;;;;;;3.90;83.24;103479.53;5061525;28;20036;-79
2022/01/28 10:11:31;;;;;;;;;;;;;;;3.95;83.34;103470.31;5057630;28;20033;-79
2022/01/28 10:14:08;;;;;;;12.55;4.18;;;;;;;3.99;83.70;103471.34;5056546;28;19924;-79
2022/01/28 10:16:34;;;;;;;14.13;3.87;;;;;;;4.04;83.53;103475.88;5053661;28;20029;-80
2022/01/28 10:19:02;;;;;;;13.83;4.80;;;;;;;4.07;83.70;103478.59;5060441;28;20067;-79
2022/01/28 10:21:38;;;;;;;8.73;4.10;;;;;;;4.13;83.66;103469.34;5057810;28;20053;-79
2022/01/28 10:24:06;;;;;;;13.93;4.10;;;;;;;4.18;83.86;103473.03;5050719;28;20049;-78
2022/01/28 10:26:50;;;;;;;15.07;3.90;;;;;;;4.24;83.84;103468.16;5056489;28;20067;-80
2022/01/28 10:29:21;;;;;;;12.43;4.53;;;;;;;4.28;84.01;103470.00;5055183;28;20037;-80
2022/01/28 10:31:48;;;;;;;19.25;4.05;;;;;;;4.32;83.44;103473.63;5057324;28;20045;-79
2022/01/28 10:34:29;;;;;;;14.03;4.40;;;;;;;4.36;83.52;103473.81;5058811;28;20595;-79
2022/01/28 10:37:20;;;;;;;12.00;4.35;;;;;;;4.43;83.27;103468.94;5055749;28;20024;-80
2022/01/28 10:40:06;;;;;;;22.40;5.20;;;;;;;4.46;83.84;103474.19;5053068;28;20040;-81
2022/01/28 10:42:34;;;;;;;10.93;3.72;;;;;;;4.52;82.96;103484.78;5057508;28;20033;-80
2022/01/28 10:45:03;;;;;;;14.75;4.13;;;;;;;4.56;82.93;103472.06;5054811;28;20028;-79
2022/01/28 10:47:36;;;;;;;12.63;4.17;;;;;;;4.62;82.91;103476.59;5057626;28;20140;-80
2022/01/28 10:50:19;;;;;;;17.97;3.63;;;;;;;4.66;82.77;103468.19;5057090;28;20115;-80
2022/01/28 10:52:44;;;;;;;13.47;3.77;;;;;;;4.69;82.95;103468.31;5056768;28;20066;-80
2022/01/28 10:55:18;;;;;;;16.47;4.50;;;;;;;4.73;82.71;103468.44;5056253;28;20024;-79
2022/01/28 10:58:06;;;;;;;14.03;4.27;;;;;;;4.79;83.13;103466.09;5056336;28;20028;-80
2022/01/28 11:00:35;;;;;;;14.60;3.75;;;;;;;4.81;82.74;103461.88;5051273;28;20033;-78
2022/01/28 11:03:04;;;;;;;12.77;3.38;;;;;;;4.85;82.35;103467.25;5057394;28;20119;-79
2022/01/28 11:05:31;;;;;;;18.42;3.17;;;;;;;4.90;81.91;103461.38;5056903;28;20087;-79
2022/01/28 11:07:58;;;;;;;8.98;3.00;;;;;;;4.93;81.71;103462.41;5056192;28;20106;-79
2022/01/28 11:10:24;;;;;;;12.27;3.53;;;;;;;4.95;81.30;103450.41;5056425;28;20032;-79
2022/01/28 11:12:51;;;;;;;17.60;3.63;;;;;;;5.04;80.17;103459.34;5054889;28;20043;-79
2022/01/28 11:15:16;;;;;;;17.73;3.67;;;;;;;5.08;80.62;103445.78;5056169;28;20032;-80
2022/01/28 11:17:42;;;;;;;16.65;4.50;;;;;;;5.11;80.77;103438.16;5057534;28;20036;-79
2022/01/28 11:20:09;;;;;;;9.80;3.53;;;;;;;5.15;80.96;103433.16;5054564;28;20527;-79
2022/01/28 11:23:01;;;;;;;12.85;3.90;;;;;;;5.21;81.08;103427.34;5056043;28;20098;-79
2022/01/28 11:25:44;;;;;;;10.80;2.45;;;;;;;5.28;79.30;103424.19;5059880;28;20451;-79
2022/01/28 11:28:12;;;;;;;9.90;2.25;;;;;;;5.32;78.36;103420.88;5058057;28;20033;-79
2022/01/28 11:30:50;;;;;;;13.23;2.22;;;;;;;5.34;76.86;103418.38;5055107;28;20032;-79
2022/01/28 11:33:16;;;;;;;12.55;2.33;;;;;;;5.40;76.58;103412.56;5053708;28;20494;-79
2022/01/28 11:36:00;;;;;;;9.02;2.33;;;;;;;5.42;77.59;103405.75;5056898;28;20037;-78
2022/01/28 11:38:28;;;;;;;6.13;1.73;;;;;;;5.44;77.17;103415.31;5056830;28;20080;-79
2022/01/28 11:40:54;;;;;;;13.07;2.30;;;;;;;5.48;76.07;103400.81;5053324;28;20035;-79
2022/01/28 11:43:23;;;;;;;9.65;1.90;;;;;;;5.57;75.72;103406.31;5055292;28;20028;-79
2022/01/28 11:46:07;;;;;;;10.48;1.55;;;;;;;5.67;76.04;103404.06;5058622;28;20024;-78
2022/01/28 11:48:56;;;;;;;10.80;1.75;;;;;;;5.77;76.83;103401.88;5056318;28;20408;-79
2022/01/28 11:51:41;;;;;;;11.05;1.80;;;;;;;5.87;74.07;103400.50;5052642;28;20481;-79
2022/01/28 11:54:13;;;;;;;8.63;1.80;;;;;;;6.02;75.33;103407.06;5052007;28;20512;-79
2022/01/28 11:56:41;;;;;;;8.55;1.88;;;;;;;6.17;74.71;103399.81;5056025;28;20479;-78
2022/01/28 11:59:08;;;;;;;13.02;2.15;;;;;;;6.30;73.26;103390.78;5055823;28;20556;-78
2022/01/28 12:01:39;;;;;;;11.40;2.08;;;;;;;6.46;74.03;103405.13;5054561;28;20043;-79
2022/01/28 12:04:23;;;;;;;11.57;2.00;;;;;;;6.61;74.43;103401.25;5052442;28;20054;-78
2022/01/28 12:07:14;;;;;;;11.18;3.25;;;;;;;6.74;73.74;103405.13;5056710;28;20039;-78
2022/01/28 12:09:45;;;;;;;10.00;2.22;;;;;;;6.83;72.08;103398.50;5060338;28;20033;-79
2022/01/28 12:12:12;;;;;;;11.38;2.30;;;;;;;6.94;72.61;103400.56;5055669;28;20024;-79
2022/01/28 12:14:50;;;;;;;10.05;2.50;;;;;;;7.05;72.87;103394.00;5051356;28;20027;-80
2022/01/28 12:17:43;;;;;;;15.45;2.83;;;;;;;7.18;73.79;103392.66;5051613;28;20107;-80
2022/01/28 12:20:19;;;;;;;11.60;2.42;;;;;;;7.27;72.47;103374.78;5051824;28;20045;-80
2022/01/28 12:23:02;;;;;;;11.52;2.63;;;;;;;7.33;72.66;103379.31;5053132;28;20048;-80
2022/01/28 12:25:37;;;;;;;13.32;2.40;;;;;;;7.36;71.22;103373.31;5053832;28;20093;-79
2022/01/28 12:28:23;;;;;;;12.82;2.50;;;;;;;7.47;72.21;103360.69;5051858;28;20024;-79
2022/01/28 12:31:00;;;;;;;9.82;2.55;;;;;;;7.60;71.66;103362.75;5054445;28;20036;-79
2022/01/28 12:33:30;;;;;;;12.27;1.90;;;;;;;7.66;68.71;103362.94;5053474;28;20021;-79
2022/01/28 12:36:05;;;;;;;7.53;2.10;;;;;;;7.73;67.89;103354.47;5053193;28;20051;-80
2022/01/28 12:38:31;;;;;;;9.48;1.85;;;;;;;7.77;67.18;103345.06;5054222;28;20028;-81
2022/01/28 12:41:06;;;;;;;11.07;1.40;;;;;;;7.79;67.42;103342.53;5058986;28;20028;-80
2022/01/28 12:43:32;;;;;;;9.63;1.58;;;;;;;7.79;66.94;103334.75;5056094;28;20028;-80
2022/01/28 12:46:07;;;;;;;13.75;1.95;;;;;;;7.77;67.97;103344.22;5055796;28;20028;-80
2022/01/28 12:48:33;;;;;;;9.18;1.50;;;;;;;7.68;65.84;103339.66;5053066;28;20770;-80
2022/01/28 12:51:00;;;;;;;10.43;1.50;;;;;;;7.61;66.25;103330.84;5056646;28;20029;-80
2022/01/28 12:53:40;;;;;;;6.15;1.40;;;;;;;7.56;67.99;103330.72;5056459;28;20033;-81
2022/01/28 12:56:08;;;;;;;8.70;1.60;;;;;;;7.53;66.09;103334.94;5058097;28;20028;-80
2022/01/28 12:58:35;;;;;;;10.93;1.70;;;;;;;7.54;66.37;103336.69;5058939;28;20480;-80
2022/01/28 13:01:05;;;;;;;9.30;1.63;;;;;;;7.60;66.06;103334.28;5059652;28;20028;-79
2022/01/28 13:03:36;;;;;;;5.35;1.67;;;;;;;7.68;65.76;103335.38;5057190;28;20368;-79